»·PEaware :: UAL1861 KLAS-KLAX

UAL1861 :: KLAS-KLAX

FLIGHT INFORMATION

Flight Status: Arrived
Operator:
United Airlines
More flights by this operator :: More flights under this callsign
Pilot: Luc P. (3613)
Aircraft: Unknown
(B39M)
More flights by this aircraft type
Origin: KLAS McCarran Intl
United States
Destination: KLAX Los Angeles Intl
United States
More flights between these airports :: More routes between these airports
Route: BOACH8 RIKII SHTNR ANJLL4
File this flight plan on PilotEdge
Remarks:
Altitude:
(Current/Filed)
28,000ft
Speed:
(Current/Filed)
408kts
Departed: 07-Jan-21 07:07 PM
Arrived: 07-Jan-21 07:51 PM
Distance/Time
Traveled:
205nm/0:44
Distance/Time
To Go:
Arrived

Flight Plot

Page will automatically refresh every two minutes.

Flight plan parsing failed; only flown route is shown


Map Options




Map Legend


Flown Route
Filed Route
Departure Airport
Arrival Airport
Navaid (VOR, NDB)
Fix

Horizontal Profiles

Position Reports

Time Latitude Longitude Heading Altitude Ground
Speed
07-Jan-21 18:40 36.083122 -115.139995 124 2077ft 0kts
07-Jan-21 18:41 36.083122 -115.139995 124 2077ft 0kts
07-Jan-21 18:42 36.083122 -115.139995 124 2077ft 0kts
07-Jan-21 18:43 36.083122 -115.139995 124 2077ft 0kts
07-Jan-21 18:44 36.083122 -115.139995 124 2077ft 0kts
07-Jan-21 18:45 36.083122 -115.139995 124 2077ft 0kts
07-Jan-21 18:46 36.083122 -115.139995 124 2077ft 0kts
07-Jan-21 18:47 36.083122 -115.139995 124 2077ft 0kts
07-Jan-21 18:48 36.083122 -115.139995 124 2077ft 0kts
07-Jan-21 18:49 36.083122 -115.139995 124 2077ft 0kts
07-Jan-21 18:50 36.083122 -115.139995 124 2077ft 0kts
07-Jan-21 18:51 36.083122 -115.139995 124 2077ft 0kts
07-Jan-21 18:52 36.083122 -115.139995 124 2077ft 0kts
07-Jan-21 18:53 36.083260 -115.140247 123 2077ft 2kts
07-Jan-21 18:54 36.083597 -115.140862 124 2078ft 2kts
07-Jan-21 18:55 36.083979 -115.141129 229 2078ft 1kts
07-Jan-21 18:56 36.084008 -115.141091 223 2078ft 0kts
07-Jan-21 18:57 36.084008 -115.141091 223 2078ft 0kts
07-Jan-21 18:58 36.084008 -115.141091 223 2078ft 0kts
07-Jan-21 18:59 36.084008 -115.141091 223 2078ft 0kts
07-Jan-21 19:00 36.083330 -115.141579 183 2080ft 8kts
07-Jan-21 19:01 36.080258 -115.141591 179 2084ft 8kts
07-Jan-21 19:02 36.078274 -115.139580 90 2080ft 19kts
07-Jan-21 19:03 36.078270 -115.130214 89 2057ft 31kts
07-Jan-21 19:04 36.078127 -115.122498 125 2043ft 8kts
07-Jan-21 19:05 36.076385 -115.122490 269 2043ft 26kts
07-Jan-21 19:06 36.076409 -115.168641 269 3256ft 174kts
07-Jan-21 19:07 36.066452 -115.239205 236 4732ft 249kts
07-Jan-21 19:08 36.004315 -115.287049 201 7589ft 282kts
07-Jan-21 19:09 35.926967 -115.308966 182 10397ft 306kts
07-Jan-21 19:10 35.837368 -115.313970 178 13203ft 330kts
07-Jan-21 19:11 35.744245 -115.303060 178 16513ft 342kts
07-Jan-21 19:12 35.647541 -115.295732 186 19489ft 354kts
07-Jan-21 19:13 35.546651 -115.299725 187 22117ft 370kts
07-Jan-21 19:14 35.451867 -115.341435 215 24477ft 368kts
07-Jan-21 19:15 35.362267 -115.406479 215 26590ft 382kts
07-Jan-21 19:16 35.269220 -115.473957 215 28171ft 400kts
07-Jan-21 19:17 35.170473 -115.545389 215 28177ft 414kts
07-Jan-21 19:18 35.082168 -115.631780 230 28176ft 405kts
07-Jan-21 19:19 35.004028 -115.731696 229 28189ft 404kts
07-Jan-21 19:20 34.926535 -115.830549 229 28179ft 403kts
07-Jan-21 19:21 34.848770 -115.929321 229 28189ft 402kts
07-Jan-21 19:22 34.771235 -116.027553 229 28208ft 404kts
07-Jan-21 19:23 34.694191 -116.125664 229 28240ft 400kts
07-Jan-21 19:24 34.617043 -116.223753 229 28245ft 400kts
07-Jan-21 19:25 34.540112 -116.321283 229 28244ft 399kts
07-Jan-21 19:26 34.463153 -116.418582 229 28243ft 399kts
07-Jan-21 19:27 34.397939 -116.522644 245 28241ft 377kts
07-Jan-21 19:28 34.350890 -116.636874 245 27276ft 375kts
07-Jan-21 19:29 34.304715 -116.750357 245 26276ft 370kts
07-Jan-21 19:30 34.260135 -116.861073 245 24797ft 360kts
07-Jan-21 19:31 34.216947 -116.967982 245 22440ft 346kts
07-Jan-21 19:32 34.185800 -117.074837 252 20254ft 333kts
07-Jan-21 19:33 34.157573 -117.179438 252 18209ft 321kts
07-Jan-21 19:34 34.129732 -117.280894 252 16109ft 315kts
07-Jan-21 19:35 34.102469 -117.380047 253 14258ft 307kts
07-Jan-21 19:36 34.076580 -117.483552 254 12270ft 320kts
07-Jan-21 19:37 34.044691 -117.579114 248 11118ft 292kts
07-Jan-21 19:38 34.012202 -117.669089 247 10146ft 283kts
07-Jan-21 19:39 33.998739 -117.760425 264 8916ft 273kts
07-Jan-21 19:40 33.990494 -117.846792 263 7820ft 246kts
07-Jan-21 19:41 33.982830 -117.926246 263 6836ft 229kts
07-Jan-21 19:42 33.973126 -117.999164 271 6077ft 218kts
07-Jan-21 19:43 33.968045 -118.072271 262 4997ft 200kts
07-Jan-21 19:44 33.962070 -118.132811 264 4371ft 176kts
07-Jan-21 19:45 33.956529 -118.192076 264 3402ft 180kts
07-Jan-21 19:46 33.950358 -118.251805 264 2431ft 178kts
07-Jan-21 19:47 33.945033 -118.306242 263 1381ft 148kts
07-Jan-21 19:48 33.940224 -118.354790 263 629ft 147kts
07-Jan-21 19:49 33.935537 -118.400764 263 121ft 72kts
07-Jan-21 19:50 33.935950 -118.407346 262 129ft 8kts
07-Jan-21 19:51 33.935666 -118.410276 264 129ft 8kts
07-Jan-21 19:52 33.937541 -118.412633 19 128ft 11kts
07-Jan-21 19:53 33.938769 -118.408217 82 129ft 21kts
07-Jan-21 19:55 33.939411 -118.401871 83 123ft 18kts
07-Jan-21 19:56 33.941635 -118.400862 353 122ft 3kts
07-Jan-21 19:57 33.942034 -118.400218 69 121ft 0kts

Navigation Log

Ident Type
Flight plan parsing failed, navigation log unavailable